Time;durP1;ratioP1;P1;durP2;ratioP2;P2;SDS_P1;SDS_P2;PMS_P1;PMS_P2;Temp;Humidity;BMP_temperature;BMP_pressure;BME280_temperature;BME280_humidity;BME280_pressure;Samples;Min_cycle;Max_cycle;Signal;HPM_P1;HPM_P2
2023/01/13 00:01:33;;;;;;;;;0.00;0.00;;;;;21.58;47.97;100866.81;5076369;27;46183;-70
2023/01/13 00:03:59;;;;;;;;;0.00;0.00;;;;;21.46;47.94;100847.91;5076886;27;45337;-70
2023/01/13 00:06:25;;;;;;;;;2.00;1.00;;;;;21.58;47.66;100863.34;5076955;28;45689;-70
2023/01/13 00:08:52;;;;;;;;;2.00;0.00;;;;;21.58;47.98;100852.75;5076879;28;45316;-70
2023/01/13 00:11:18;;;;;;;;;0.00;0.00;;;;;21.58;47.60;100856.25;5076601;28;46358;-70
2023/01/13 00:13:44;;;;;;;;;0.00;0.00;;;;;21.59;47.51;100865.00;5076614;27;45328;-70
2023/01/13 00:16:14;;;;;;;;;1.00;1.00;;;;;21.58;47.41;100861.53;5076479;28;45303;-69
2023/01/13 00:18:39;;;;;;;;;0.00;0.00;;;;;21.58;47.42;100863.34;5076774;27;45269;-70
2023/01/13 00:21:10;;;;;;;;;1.67;0.33;;;;;21.58;47.37;100869.47;5076419;28;46266;-70
2023/01/13 00:23:37;;;;;;;;;0.00;0.00;;;;;21.54;47.55;100849.66;5076897;28;45370;-70
2023/01/13 00:26:06;;;;;;;;;0.33;0.00;;;;;21.59;47.96;100860.53;5076785;28;45364;-70
2023/01/13 00:28:31;;;;;;;;;0.67;0.00;;;;;21.59;47.73;100857.91;5076784;28;45388;-70
2023/01/13 00:31:07;;;;;;;;;0.00;0.00;;;;;21.58;47.54;100863.34;5075920;28;46906;-70
2023/01/13 00:33:34;;;;;;;;;0.00;0.00;;;;;21.57;47.82;100861.72;5076742;28;45509;-70
2023/01/13 00:36:00;;;;;;;;;0.00;0.00;;;;;21.57;47.35;100861.72;5076549;27;45403;-70
2023/01/13 00:38:27;;;;;;;;;0.00;0.00;;;;;21.56;47.62;100855.59;5076546;28;45364;-70
2023/01/13 00:41:04;;;;;;;;;0.00;0.00;;;;;21.56;47.43;100860.06;5076389;28;47147;-69
2023/01/13 00:43:31;;;;;;;;;0.00;0.00;;;;;21.55;47.31;100853.09;5076238;28;45379;-70
2023/01/13 00:45:57;;;;;;;;;0.67;0.67;;;;;21.42;47.69;100843.94;5075491;28;45486;-70
2023/01/13 00:48:25;;;;;;;;;1.00;1.00;;;;;21.54;47.83;100862.06;5076435;28;45317;-70
2023/01/13 00:50:59;;;;;;;;;1.00;1.00;;;;;21.54;47.31;100854.13;5076168;28;45387;-69
2023/01/13 00:53:26;;;;;;;;;0.00;0.00;;;;;21.52;47.24;100862.22;5076171;27;45439;-70
2023/01/13 00:56:06;;;;;;;;;0.00;0.00;;;;;21.51;47.23;100852.66;5076131;28;45328;-70
2023/01/13 00:58:33;;;;;;;;;0.00;0.00;;;;;21.51;47.19;100855.31;5076320;28;45555;-70
2023/01/13 01:01:03;;;;;;;;;0.00;0.00;;;;;21.52;47.58;100852.47;5075549;27;46285;-69
2023/01/13 01:03:29;;;;;;;;;0.67;0.00;;;;;21.51;47.58;100853.47;5075828;28;45308;-70
2023/01/13 01:05:55;;;;;;;;;1.00;1.00;;;;;21.49;47.29;100852.00;5076137;28;45279;-70
2023/01/13 01:08:20;;;;;;;;;0.00;0.00;;;;;21.49;47.33;100849.38;5076061;28;45371;-70
2023/01/13 01:10:46;;;;;;;;;2.00;0.00;;;;;21.49;47.60;100850.16;5075874;27;45945;-70
2023/01/13 01:13:15;;;;;;;;;0.00;0.00;;;;;21.50;47.31;100846.53;5075907;27;45397;-70
2023/01/13 01:15:42;;;;;;;;;0.00;0.00;;;;;21.49;47.60;100850.16;5076110;28;45371;-70
2023/01/13 01:18:07;;;;;;;;;0.67;0.00;;;;;21.48;47.45;100853.00;5075886;27;45642;-70
2023/01/13 01:20:32;;;;;;;;;0.00;0.00;;;;;21.47;47.50;100852.16;5075651;28;46114;-70
2023/01/13 01:22:58;;;;;;;;;0.00;0.00;;;;;21.48;47.28;100858.28;5075976;28;45222;-70
2023/01/13 01:25:23;;;;;;;;;0.00;0.00;;;;;21.48;47.29;100853.00;5076106;28;45615;-70
2023/01/13 01:27:48;;;;;;;;;0.00;0.00;;;;;21.47;47.23;100857.47;5075687;28;45313;-69
2023/01/13 01:30:14;;;;;;;;;1.00;1.00;;;;;21.47;47.24;100848.69;5075633;28;45301;-70
2023/01/13 01:32:40;;;;;;;;;0.00;0.00;;;;;21.46;47.19;100861.13;5075748;28;45422;-70
2023/01/13 01:35:05;;;;;;;;;0.00;0.00;;;;;21.46;47.55;100850.53;5075831;28;45271;-70
2023/01/13 01:37:31;;;;;;;;;0.00;0.00;;;;;21.40;47.47;100851.22;5075794;28;45368;-70
2023/01/13 01:39:56;;;;;;;;;0.00;0.00;;;;;21.45;47.25;100862.13;5075418;27;47050;-70
2023/01/13 01:45:30;;;;;;;;;0.00;0.00;;;;;21.47;47.37;100851.34;5075699;27;45345;-70
2023/01/13 01:47:59;;;;;;;;;0.00;0.00;;;;;21.46;47.35;100855.00;5075601;28;45424;-70
2023/01/13 01:50:27;;;;;;;;;1.00;0.00;;;;;21.46;47.24;100858.47;5075319;27;45370;-70
2023/01/13 01:52:58;;;;;;;;;0.67;0.00;;;;;21.47;47.42;100862.75;5075464;28;45414;-70
2023/01/13 01:55:30;;;;;;;;;0.67;0.00;;;;;21.47;47.03;100849.53;5075287;28;45371;-70
2023/01/13 01:58:28;;;;;;;;;0.00;0.00;;;;;21.48;47.08;100858.28;5078089;28;45350;-70
2023/01/13 02:00:53;;;;;;;;;1.00;0.00;;;;;21.48;47.03;100853.84;5062871;28;45388;-70
2023/01/13 02:03:19;;;;;;;;;0.00;0.00;;;;;21.48;47.22;100866.22;5078688;28;45396;-69
2023/01/13 02:05:45;;;;;;;;;0.33;0.33;;;;;21.45;47.36;100869.22;5078944;28;45268;-70
2023/01/13 02:08:12;;;;;;;;;0.00;0.00;;;;;21.49;46.90;100887.22;5078752;28;45371;-70
2023/01/13 02:10:41;;;;;;;;;0.00;0.00;;;;;21.49;47.29;100899.66;5078631;28;46214;-70
2023/01/13 02:13:11;;;;;;;;;0.00;0.00;;;;;21.48;47.25;100884.75;5078375;28;45274;-69
2023/01/13 02:15:54;;;;;;;;;0.00;0.00;;;;;21.34;46.89;100876.56;5078756;28;45477;-70
2023/01/13 02:18:44;;;;;;;;;0.00;0.00;;;;;21.47;47.35;100902.47;5078521;27;45297;-70
2023/01/13 02:21:09;;;;;;;;;0.00;0.00;;;;;21.47;47.20;100906.94;5078367;27;46252;-69
2023/01/13 02:26:59;;;;;;;;;0.00;0.00;;;;;21.46;47.32;100890.25;5078382;28;45390;-70
2023/01/13 02:32:56;;;;;;;;;0.33;0.33;;;;;21.45;46.88;100885.94;5078272;27;45375;-70
2023/01/13 02:35:30;;;;;;;;;0.00;0.00;;;;;21.44;46.92;100884.31;5078305;28;45341;-70
2023/01/13 02:37:59;;;;;;;;;0.00;0.00;;;;;21.44;46.78;100871.06;5078303;28;45441;-70
2023/01/13 02:40:28;;;;;;;;;0.00;0.00;;;;;21.44;47.20;100875.53;5077926;28;45453;-70
2023/01/13 02:46:02;;;;;;;;;1.00;0.00;;;;;21.39;47.44;100868.94;5078257;28;45175;-70
2023/01/13 02:48:30;;;;;;;;;0.00;0.00;;;;;21.38;47.06;100875.25;5078207;27;45418;-70
2023/01/13 02:51:03;;;;;;;;;1.67;0.00;;;;;21.44;46.83;100883.47;5078185;27;45351;-70
2023/01/13 02:53:34;;;;;;;;;0.00;0.00;;;;;21.44;47.28;100878.19;5077983;27;46070;-70
2023/01/13 02:56:03;;;;;;;;;1.33;0.00;;;;;21.33;46.85;100859.06;5077529;27;45376;-70
2023/01/13 02:58:30;;;;;;;;;0.00;0.00;;;;;;;;5078046;28;45316;-70
2023/01/13 03:00:56;;;;;;;;;0.00;0.00;;;;;21.42;46.76;100870.41;5078145;28;45362;-70
2023/01/13 03:03:22;;;;;;;;;0.00;0.00;;;;;21.29;47.07;100861.22;5077699;28;45252;-69
2023/01/13 03:05:53;;;;;;;;;0.00;0.00;;;;;21.42;46.90;100874.91;5077899;28;45288;-70
2023/01/13 03:08:21;;;;;;;;;0.00;0.00;;;;;21.40;47.00;100883.81;5077937;27;45324;-70
2023/01/13 03:11:04;;;;;;;;;0.00;0.00;;;;;21.40;46.83;100881.19;5077417;28;45419;-70
2023/01/13 03:13:44;;;;;;;;;0.00;0.00;;;;;21.40;46.77;100896.22;5077654;28;46996;-70
2023/01/13 03:16:12;;;;;;;;;0.00;0.00;;;;;21.42;47.10;100906.66;5077647;27;45305;-70
2023/01/13 03:19:01;;;;;;;;;0.00;0.00;;;;;21.40;46.72;100888.28;5077667;27;45407;-70
2023/01/13 03:21:39;;;;;;;;;0.00;0.00;;;;;21.38;47.13;100904.34;5077754;27;45315;-70
2023/01/13 03:24:12;;;;;;;;;0.00;0.00;;;;;21.38;47.18;100928.19;5077248;28;45327;-70
2023/01/13 03:26:47;;;;;;;;;2.00;0.00;;;;;21.42;46.75;100909.31;5077636;28;45447;-70
2023/01/13 03:29:33;;;;;;;;;0.00;0.00;;;;;21.41;46.70;100900.53;5077526;27;45234;-69
2023/01/13 03:32:10;;;;;;;;;1.00;0.00;;;;;21.42;46.83;100890.78;5077510;28;45170;-70
2023/01/13 03:34:44;;;;;;;;;1.00;0.00;;;;;21.42;46.66;100890.78;5077245;28;45412;-70
2023/01/13 03:37:11;;;;;;;;;0.67;0.00;;;;;;;;5077294;28;45263;-70
2023/01/13 03:39:38;;;;;;;;;0.00;0.00;;;;;;;;5077322;27;45431;-70
2023/01/13 03:42:11;;;;;;;;;0.00;0.00;;;;;21.43;46.72;100911.78;5077277;28;45524;-70
2023/01/13 03:45:01;;;;;;;;;0.00;0.00;;;;;21.43;47.10;100919.72;5077132;27;45382;-70
2023/01/13 03:47:46;;;;;;;;;1.00;0.00;;;;;21.45;46.78;100919.53;5077285;28;45321;-70
2023/01/13 03:50:28;;;;;;;;;0.00;0.00;;;;;21.44;47.00;100897.53;5077309;28;45220;-70
2023/01/13 03:53:09;;;;;;;;;0.00;0.00;;;;;21.45;47.02;100903.63;5076891;28;45308;-70
2023/01/13 03:55:39;;;;;;;;;0.00;0.00;;;;;21.44;47.14;100886.13;5076850;28;45352;-70
2023/01/13 03:58:15;;;;;;;;;0.33;0.00;;;;;21.44;46.96;100894.91;5076957;27;45348;-70
2023/01/13 04:01:07;;;;;;;;;0.00;0.00;;;;;21.43;47.03;100895.88;5077065;28;45458;-70
2023/01/13 04:03:37;;;;;;;;;0.00;0.00;;;;;21.44;46.44;100902.00;5059001;28;45519;-70
2023/01/13 04:06:14;;;;;;;;;0.00;0.00;;;;;21.43;46.62;100909.13;5076750;27;46437;-70
2023/01/13 04:08:48;;;;;;;;;0.00;0.00;;;;;21.39;46.51;100902.53;5076518;27;45373;-69
2023/01/13 04:11:37;;;;;;;;;0.00;0.00;;;;;21.42;46.84;100909.31;5076943;28;45218;-70
2023/01/13 04:14:06;;;;;;;;;0.67;0.67;;;;;21.42;46.55;100910.09;5076910;27;45360;-70
2023/01/13 04:16:31;;;;;;;;;0.00;0.00;;;;;21.40;46.84;100914.75;5076589;28;47359;-70
2023/01/13 04:18:57;;;;;;;;;1.00;0.00;;;;;21.40;46.54;100912.09;5075872;27;45297;-70
2023/01/13 04:21:22;;;;;;;;;0.33;0.33;;;;;21.39;46.33;100911.28;5076828;28;45514;-70
2023/01/13 04:23:50;;;;;;;;;0.00;0.00;;;;;21.38;46.75;100914.94;5076535;28;45942;-70
2023/01/13 04:26:16;;;;;;;;;0.00;0.00;;;;;21.39;46.59;100921.88;5076590;27;46176;-69
2023/01/13 04:28:41;;;;;;;;;0.00;0.00;;;;;21.40;46.85;100920.06;5076603;27;45642;-69
2023/01/13 04:31:07;;;;;;;;;0.00;0.00;;;;;21.39;46.38;100918.41;5076677;28;45385;-70
2023/01/13 04:33:32;;;;;;;;;0.00;0.00;;;;;21.39;46.57;100923.72;5076809;28;45463;-70
2023/01/13 04:35:57;;;;;;;;;1.00;0.00;;;;;21.38;46.49;100925.53;5076566;28;45447;-69
2023/01/13 04:38:23;;;;;;;;;1.00;0.00;;;;;21.38;46.86;100922.88;5076265;27;45449;-70
2023/01/13 04:40:48;;;;;;;;;0.00;0.00;;;;;21.36;46.70;100919.59;5076688;28;45372;-70
2023/01/13 04:43:14;;;;;;;;;1.00;1.00;;;;;21.37;46.55;100923.03;5075739;28;45400;-70
2023/01/13 04:45:40;;;;;;;;;0.00;0.00;;;;;21.37;46.65;100926.50;5076237;28;46937;-70
2023/01/13 04:48:06;;;;;;;;;0.00;0.00;;;;;21.37;46.34;100923.03;5076331;28;45312;-70
2023/01/13 04:50:31;;;;;;;;;0.00;0.00;;;;;21.36;46.39;100922.25;5075181;28;45649;-70
2023/01/13 04:52:57;;;;;;;;;0.00;0.00;;;;;21.34;46.46;100932.16;5057764;28;45341;-70
2023/01/13 04:55:23;;;;;;;;;0.00;0.00;;;;;21.37;46.97;100941.56;5075986;28;45434;-70
2023/01/13 04:57:49;;;;;;;;;0.67;0.00;;;;;21.35;46.73;100946.22;5057991;28;45248;-70
2023/01/13 05:00:17;;;;;;;;;0.00;0.00;;;;;21.36;46.86;100938.13;5076385;28;45230;-70
2023/01/13 05:02:42;;;;;;;;;0.00;0.00;;;;;21.31;46.96;100929.88;5076062;28;45523;-70
2023/01/13 05:05:08;;;;;;;;;0.67;0.00;;;;;21.36;46.68;100930.19;5075758;28;47094;-70
2023/01/13 05:07:34;;;;;;;;;0.00;0.00;;;;;21.32;46.79;100920.91;5075603;28;46010;-70
2023/01/13 05:09:59;;;;;;;;;0.00;0.00;;;;;21.31;46.48;100919.28;5076172;28;45450;-69
2023/01/13 05:17:55;;;;;;;;;0.00;0.00;;;;;21.32;46.56;100926.22;5075952;27;45493;-70
2023/01/13 05:20:21;;;;;;;;;0.00;0.00;;;;;21.36;46.64;100930.19;5075547;28;45383;-70
2023/01/13 05:25:31;;;;;;;;;0.00;0.00;;;;;21.39;46.55;100937.75;5075860;28;45714;-70
2023/01/13 05:27:58;;;;;;;;;0.67;0.00;;;;;21.39;46.84;100948.34;5075798;28;45484;-70
2023/01/13 05:30:29;;;;;;;;;1.00;0.67;;;;;21.40;46.06;100965.88;5076543;28;45678;-70
2023/01/13 05:32:55;;;;;;;;;0.00;0.00;;;;;21.40;46.69;100965.03;5079331;28;45490;-70
2023/01/13 05:35:20;;;;;;;;;0.00;0.00;;;;;21.40;46.22;100965.88;5078860;27;46945;-70
2023/01/13 05:37:46;;;;;;;;;0.00;0.00;;;;;21.36;46.17;100959.28;5079231;27;45324;-70
2023/01/13 05:43:20;;;;;;;;;0.00;0.00;;;;;21.31;46.69;100955.50;5079280;28;45377;-70
2023/01/13 05:46:04;;;;;;;;;1.00;0.00;;;;;21.39;46.00;100971.34;5078949;27;46139;-70
2023/01/13 05:48:34;;;;;;;;;2.00;0.00;;;;;21.38;46.27;100969.69;5079354;28;45297;-70
2023/01/13 05:51:03;;;;;;;;;0.00;0.00;;;;;21.32;46.51;100965.06;5078848;27;45376;-70
2023/01/13 05:53:28;;;;;;;;;0.00;0.00;;;;;21.37;46.17;100976.81;5079151;28;45326;-70
2023/01/13 05:55:55;;;;;;;;;0.00;0.00;;;;;21.36;46.44;100979.63;5057033;28;46222;-70
2023/01/13 05:58:22;;;;;;;;;0.00;0.00;;;;;21.36;46.81;100985.75;5058681;28;45336;-70
2023/01/13 06:00:48;;;;;;;;;0.00;0.00;;;;;21.37;46.44;100997.97;5058583;28;45397;-70
2023/01/13 06:03:14;;;;;;;;;0.00;0.00;;;;;21.36;46.50;101001.63;5058234;28;45377;-70
2023/01/13 06:05:40;;;;;;;;;1.00;0.00;;;;;21.36;46.48;101009.59;5058519;28;46085;-70
2023/01/13 06:08:06;;;;;;;;;1.33;0.00;;;;;21.37;46.28;101011.22;5058496;28;45365;-70
2023/01/13 06:10:33;;;;;;;;;0.00;0.00;;;;;21.37;46.54;101015.66;5058424;28;45235;-70
2023/01/13 06:12:58;;;;;;;;;0.00;0.00;;;;;21.36;46.20;101016.69;5058641;28;45334;-69
2023/01/13 06:15:24;;;;;;;;;0.00;0.00;;;;;21.35;46.53;101007.91;5058157;28;46144;-70
2023/01/13 06:17:50;;;;;;;;;1.00;0.00;;;;;21.25;46.53;100992.25;5061310;27;45203;-69
2023/01/13 06:20:16;;;;;;;;;0.00;0.00;;;;;21.36;46.21;101008.75;5078143;28;45435;-70
2023/01/13 06:22:44;;;;;;;;;0.00;0.00;;;;;21.35;46.08;101007.91;5078642;28;45323;-69
2023/01/13 06:25:43;;;;;;;;;0.00;0.00;;;;;21.26;46.04;100999.16;5078404;28;45575;-70
2023/01/13 06:28:09;;;;;;;;;0.00;0.00;;;;;21.31;46.52;101009.25;5078471;28;45297;-71
2023/01/13 06:30:38;;;;;;;;;0.00;0.00;;;;;21.35;46.24;101028.25;5078488;28;45228;-71
2023/01/13 06:33:07;;;;;;;;;0.00;0.00;;;;;21.14;46.48;100996.09;5078014;27;45380;-71
2023/01/13 06:35:35;;;;;;;;;0.33;0.00;;;;;21.24;46.51;101003.81;5060255;28;47360;-71
2023/01/13 06:38:05;;;;;;;;;0.00;0.00;;;;;21.35;46.71;101026.44;5078198;28;45336;-71
2023/01/13 06:40:31;;;;;;;;;1.00;0.00;;;;;21.33;46.38;101031.09;5078370;27;45316;-71
2023/01/13 06:43:15;;;;;;;;;0.33;0.00;;;;;21.35;46.79;101033.56;5059333;28;45552;-71
2023/01/13 06:45:44;;;;;;;;;0.00;0.00;;;;;21.23;46.94;101028.66;5078146;28;47130;-71
2023/01/13 06:48:09;;;;;;;;;0.67;0.00;;;;;21.35;46.75;101054.72;5077062;28;45248;-72
2023/01/13 06:50:34;;;;;;;;;0.00;0.00;;;;;21.36;46.60;101069.63;5069102;28;45360;-71
2023/01/13 06:53:00;;;;;;;;;0.00;0.00;;;;;21.36;47.16;101090.78;5058033;28;45278;-72
2023/01/13 06:55:25;;;;;;;;;0.00;0.00;;;;;21.35;47.00;101084.66;5064746;28;46123;-71
2023/01/13 06:57:53;;;;;;;;;0.33;0.00;;;;;21.38;46.76;101088.81;5078028;28;45695;-71
2023/01/13 07:00:19;;;;;;;;;0.00;0.00;;;;;21.39;47.11;101109.00;5078195;28;45341;-71
2023/01/13 07:02:45;;;;;;;;;0.67;0.67;;;;;21.39;46.89;101104.50;5077293;27;45411;-70
2023/01/13 07:05:11;;;;;;;;;2.00;0.00;;;;;21.40;46.78;101113.28;5077566;27;46158;-70
2023/01/13 07:07:36;;;;;;;;;1.00;0.00;;;;;21.40;46.66;101105.31;5077388;28;45537;-70
2023/01/13 07:10:02;;;;;;;;;0.00;0.00;;;;;21.40;46.95;101097.38;5077663;28;45403;-70
2023/01/13 07:12:28;;;;;;;;;0.00;0.00;;;;;21.36;46.60;101099.56;5077823;28;45387;-70
2023/01/13 07:17:37;;;;;;;;;0.00;0.00;;;;;21.40;46.62;101111.47;5077399;27;45987;-70
2023/01/13 07:20:02;;;;;;;;;2.00;0.00;;;;;21.42;46.90;101105.19;5077600;28;45205;-70
2023/01/13 07:22:28;;;;;;;;;1.00;0.00;;;;;21.28;46.38;101084.53;5077484;28;45396;-70
2023/01/13 07:24:53;;;;;;;;;2.00;1.00;;;;;21.35;46.96;101091.78;5077481;28;47109;-70
2023/01/13 07:27:18;;;;;;;;;4.00;0.00;;;;;21.39;46.88;101109.00;5077684;28;45348;-70
2023/01/13 07:29:44;;;;;;;;;0.00;0.00;;;;;21.39;46.51;101101.06;5059582;28;45251;-70
2023/01/13 07:32:09;;;;;;;;;0.00;0.00;;;;;21.40;46.47;101100.03;5077187;28;45277;-70
2023/01/13 07:34:35;;;;;;;;;0.00;0.00;;;;;21.39;46.38;101104.50;5059260;28;46260;-70
2023/01/13 07:37:01;;;;;;;;;0.00;0.00;;;;;21.28;46.70;101099.59;5077606;28;45380;-70
2023/01/13 07:39:26;;;;;;;;;0.00;0.00;;;;;21.39;46.25;101116.94;5077335;28;45370;-70
2023/01/13 07:44:35;;;;;;;;;0.67;0.00;;;;;21.38;46.32;101121.41;5077250;28;45265;-70
2023/01/13 07:47:00;;;;;;;;;2.00;1.00;;;;;21.37;46.82;101114.44;5077083;28;45317;-70
2023/01/13 07:49:25;;;;;;;;;0.67;0.00;;;;;21.38;46.66;101113.44;5077301;28;45446;-70
2023/01/13 07:51:51;;;;;;;;;0.00;0.00;;;;;21.37;46.74;101106.50;5077197;28;45418;-70
2023/01/13 07:54:16;;;;;;;;;0.00;0.00;;;;;21.38;46.86;101115.25;5075862;28;49844;-70
2023/01/13 07:56:41;;;;;;;;;0.00;0.00;;;;;21.37;46.68;101121.53;5076795;28;45426;-70
2023/01/13 07:59:07;;;;;;;;;0.00;0.00;;;;;21.37;46.64;101126.84;5074254;28;45432;-70
2023/01/13 08:01:32;;;;;;;;;0.00;0.00;;;;;21.27;46.41;101127.84;5075416;28;45513;-73
2023/01/13 08:03:58;;;;;;;;;0.00;0.00;;;;;21.36;46.43;101141.91;5075724;28;45380;-70
2023/01/13 08:06:24;;;;;;;;;0.00;0.00;;;;;21.36;46.71;101141.09;5076576;28;45459;-71
2023/01/13 08:08:50;;;;;;;;;0.00;0.00;;;;;21.28;46.74;101140.09;5074845;28;45390;-70
2023/01/13 08:11:15;;;;;;;;;0.00;0.00;;;;;21.35;46.65;101158.78;5076088;28;45350;-70
2023/01/13 08:13:40;;;;;;;;;2.00;0.00;;;;;21.37;46.68;101179.78;5076368;28;47129;-71
2023/01/13 08:16:08;;;;;;;;;0.00;0.00;;;;;21.30;46.77;101176.97;5074722;28;45418;-71
2023/01/13 08:18:35;;;;;;;;;0.67;0.00;;;;;21.36;46.67;101188.72;5076445;27;45306;-70
2023/01/13 08:21:03;;;;;;;;;1.00;0.00;;;;;21.36;46.46;101194.84;5076242;28;45470;-70
2023/01/13 08:23:29;;;;;;;;;3.00;0.00;;;;;21.34;46.33;101194.16;5076388;28;46999;-71
2023/01/13 08:25:58;;;;;;;;;2.00;0.00;;;;;21.25;46.38;101189.88;5076355;28;45510;-70
2023/01/13 08:28:30;;;;;;;;;0.67;0.00;;;;;21.27;46.75;101178.16;5076079;27;45316;-72
2023/01/13 08:31:10;;;;;;;;;0.67;0.00;;;;;21.22;46.41;101169.88;5058223;28;45332;-70
2023/01/13 08:33:36;;;;;;;;;1.00;0.00;;;;;21.36;46.73;101202.78;5058819;28;45355;-73
2023/01/13 08:36:07;;;;;;;;;0.00;0.00;;;;;21.37;46.56;101217.66;5075651;28;45402;-72
2023/01/13 08:38:33;;;;;;;;;0.00;0.00;;;;;21.37;46.73;101215.00;5075658;28;45307;-71
2023/01/13 08:40:59;;;;;;;;;0.00;0.00;;;;;21.37;46.40;101220.31;5076046;28;45182;-71
2023/01/13 08:43:24;;;;;;;;;1.00;1.00;;;;;21.38;46.40;101221.16;5075608;28;46282;-72
2023/01/13 08:45:58;;;;;;;;;0.00;0.00;;;;;21.38;46.57;101224.63;5076053;28;45280;-72
2023/01/13 08:48:25;;;;;;;;;0.67;0.00;;;;;21.38;46.63;101227.28;5076336;28;45331;-72
2023/01/13 08:50:50;;;;;;;;;0.00;0.00;;;;;21.40;46.31;101232.38;5075947;28;45525;-72
2023/01/13 08:53:16;;;;;;;;;1.67;0.00;;;;;21.40;46.70;101229.75;5075754;28;46970;-72
2023/01/13 08:55:41;;;;;;;;;0.00;0.00;;;;;21.39;46.49;101239.50;5075876;28;45300;-72
2023/01/13 08:58:06;;;;;;;;;0.00;0.00;;;;;21.37;46.55;101236.19;5075977;28;45448;-72
2023/01/13 09:00:31;;;;;;;;;1.00;1.00;;;;;21.40;46.71;101235.03;5075778;28;45384;-72
2023/01/13 09:02:57;;;;;;;;;0.00;0.00;;;;;21.40;46.11;101237.69;5074150;28;47220;-72
2023/01/13 09:05:23;;;;;;;;;0.00;0.00;;;;;21.39;46.54;101243.97;5075277;28;45327;-72
2023/01/13 09:07:48;;;;;;;;;0.00;0.00;;;;;21.39;46.42;101236.84;5075801;28;45270;-72
2023/01/13 09:10:13;;;;;;;;;1.00;0.00;;;;;21.39;45.96;101246.63;5075865;28;45344;-72
2023/01/13 09:15:23;;;;;;;;;0.00;0.00;;;;;21.37;46.34;101246.78;5075671;28;45399;-72
2023/01/13 09:17:48;;;;;;;;;2.00;0.00;;;;;21.37;46.52;101240.66;5075690;27;45359;-72
2023/01/13 09:20:13;;;;;;;;;0.00;0.00;;;;;21.37;46.46;101245.94;5074481;28;45480;-72
2023/01/13 09:22:40;;;;;;;;;0.00;0.00;;;;;21.37;46.09;101249.44;5057329;28;46987;-72
2023/01/13 09:25:06;;;;;;;;;0.00;0.00;;;;;21.36;46.02;101249.59;5075813;28;45411;-72
2023/01/13 09:27:31;;;;;;;;;0.33;0.33;;;;;21.33;46.17;101255.22;5075189;28;45423;-72
2023/01/13 09:29:57;;;;;;;;;0.00;0.00;;;;;21.36;46.11;101274.25;5075698;28;45281;-73
2023/01/13 09:32:22;;;;;;;;;0.00;0.00;;;;;21.36;46.16;101278.72;5075579;28;45336;-73
2023/01/13 09:34:59;;;;;;;;;1.67;0.33;;;;;21.35;46.03;101279.69;5075413;28;45289;-72
2023/01/13 09:37:30;;;;;;;;;1.00;1.00;;;;;21.35;46.09;101282.34;5075662;28;45365;-72
2023/01/13 09:39:55;;;;;;;;;0.67;0.00;;;;;21.36;46.55;101295.44;5075381;28;45406;-72
2023/01/13 09:45:24;;;;;;;;;0.00;0.00;;;;;21.26;46.32;101279.69;5032806;28;45475;-72
2023/01/13 09:47:56;;;;;;;;;0.00;0.00;;;;;21.36;46.34;101297.25;5032693;28;45501;-72
2023/01/13 09:50:32;;;;;;;;;0.00;0.00;;;;;21.35;45.89;101299.06;5032318;28;45478;-72
2023/01/13 09:52:59;;;;;;;;;0.33;0.00;;;;;21.35;46.02;101292.94;5032347;28;46202;-72
2023/01/13 09:55:35;;;;;;;;;1.00;0.00;;;;;21.34;46.19;101292.09;5032099;28;45584;-72
2023/01/13 09:58:09;;;;;;;;;2.33;0.00;;;;;21.29;45.92;101295.25;5032552;28;45532;-72
2023/01/13 10:00:43;;;;;;;;;0.33;0.00;;;;;21.35;46.11;101301.72;5031925;28;45330;-72
2023/01/13 10:03:18;;;;;;;;;1.67;1.00;;;;;21.35;45.97;101303.53;5031255;28;46243;-73
2023/01/13 10:05:49;;;;;;;;;0.67;0.67;;;;;21.35;45.93;101309.66;5031968;28;45425;-72
2023/01/13 10:08:24;;;;;;;;;0.00;0.00;;;;;21.35;46.68;101320.25;5032313;28;45316;-72
2023/01/13 10:14:14;;;;;;;;;2.00;0.00;;;;;21.36;46.04;101321.91;5032509;28;45333;-72
2023/01/13 10:17:01;;;;;;;;;0.00;0.00;;;;;21.37;46.00;101334.13;5031602;28;45385;-72
2023/01/13 10:19:54;;;;;;;;;0.00;0.00;;;;;21.38;46.38;101337.59;5035774;28;45532;-72
2023/01/13 10:22:50;;;;;;;;;1.00;1.00;;;;;21.37;46.09;101333.28;5049289;28;45484;-72
2023/01/13 10:25:34;;;;;;;;;0.33;0.33;;;;;21.38;46.00;101345.56;5077733;28;45667;-72
2023/01/13 10:28:12;;;;;;;;;1.00;0.00;;;;;21.39;46.32;101357.81;5077808;28;45302;-72
2023/01/13 10:30:40;;;;;;;;;0.00;0.00;;;;;21.38;45.87;101356.13;5077898;28;45363;-73
2023/01/13 10:33:14;;;;;;;;;0.33;0.33;;;;;21.40;45.87;101359.44;5059769;28;45397;-73
2023/01/13 10:36:16;;;;;;;;;0.00;0.00;;;;;21.39;46.03;101357.81;5077596;28;47257;-73
2023/01/13 10:38:44;;;;;;;;;0.00;0.00;;;;;21.39;45.84;101357.81;5035306;28;45333;-72
2023/01/13 10:41:12;;;;;;;;;0.00;0.00;;;;;21.39;46.09;101355.16;5041439;28;45472;-73
2023/01/13 10:43:38;;;;;;;;;2.00;0.00;;;;;21.39;45.96;101352.50;5055498;28;45517;-72
2023/01/13 10:46:06;;;;;;;;;0.00;0.00;;;;;21.39;46.45;101355.97;5054558;28;46160;-73
2023/01/13 10:48:56;;;;;;;;;1.33;0.00;;;;;21.40;46.03;101370.03;5055503;28;45479;-72
2023/01/13 10:51:27;;;;;;;;;0.00;0.00;;;;;21.39;46.34;101374.50;4994952;28;45363;-73
2023/01/13 10:53:57;;;;;;;;;0.00;0.00;;;;;21.39;46.10;101379.78;4995036;28;45600;-73
2023/01/13 10:56:25;;;;;;;;;0.67;0.00;;;;;21.33;46.31;101374.31;4979882;28;45370;-73
2023/01/13 10:58:51;;;;;;;;;0.00;0.00;;;;;21.27;45.79;101365.22;4975618;28;45401;-72
2023/01/13 11:01:26;;;;;;;;;0.00;0.00;;;;;21.39;46.43;101387.72;4974995;28;45500;-72
2023/01/13 11:03:55;;;;;;;;;1.00;0.00;;;;;21.39;45.85;101384.28;4975323;28;45438;-72
2023/01/13 11:06:28;;;;;;;;;1.00;0.00;;;;;21.38;46.23;101385.25;4974825;28;46311;-72
2023/01/13 11:08:57;;;;;;;;;0.00;0.00;;;;;21.37;46.19;101384.41;4975324;28;45396;-72
2023/01/13 11:11:40;;;;;;;;;0.67;0.00;;;;;21.38;45.89;101377.31;4975006;28;45538;-72
2023/01/13 11:14:35;;;;;;;;;2.00;0.00;;;;;21.34;46.46;101384.75;4984479;28;45406;-72
2023/01/13 11:17:39;;;;;;;;;0.00;0.00;;;;;21.34;45.81;101381.28;5007963;28;45414;-71
2023/01/13 11:20:10;;;;;;;;;0.00;0.00;;;;;21.37;45.86;101388.88;4995250;28;45358;-73
2023/01/13 11:22:42;;;;;;;;;1.00;0.00;;;;;21.36;46.21;101385.44;5012730;28;45573;-73
2023/01/13 11:25:32;;;;;;;;;0.00;0.00;;;;;21.36;46.13;101393.38;5014855;28;45492;-73
2023/01/13 11:28:32;;;;;;;;;2.00;0.00;;;;;21.36;45.99;101403.97;5034647;28;46042;-72
2023/01/13 11:31:29;;;;;;;;;0.00;0.00;;;;;21.36;46.25;101417.19;5076613;28;45305;-72
2023/01/13 11:34:05;;;;;;;;;1.00;0.00;;;;;21.36;45.88;101408.41;5077044;28;45271;-72
2023/01/13 11:36:37;;;;;;;;;0.00;0.00;;;;;21.28;45.90;101391.53;5077160;28;45157;-72
2023/01/13 11:39:52;;;;;;;;;0.00;0.00;;;;;21.36;46.19;101411.06;5076661;28;46382;-72
2023/01/13 11:42:35;;;;;;;;;0.00;0.00;;;;;21.36;46.09;101409.25;5014324;28;45479;-72
2023/01/13 11:45:06;;;;;;;;;0.00;0.00;;;;;21.36;45.94;101419.00;5014894;28;45491;-72
2023/01/13 11:47:33;;;;;;;;;1.00;1.00;;;;;21.28;46.35;101401.28;5014597;28;45517;-72
2023/01/13 11:50:00;;;;;;;;;0.00;0.00;;;;;21.27;46.18;101402.25;5014327;28;46088;-72
2023/01/13 11:52:53;;;;;;;;;1.00;0.00;;;;;21.38;46.23;101419.66;5013946;28;45382;-72
2023/01/13 11:55:29;;;;;;;;;0.00;0.00;;;;;21.36;45.84;101422.50;5014704;28;45438;-72
2023/01/13 11:58:11;;;;;;;;;0.33;0.00;;;;;21.38;46.26;101427.59;5014376;28;45634;-72
2023/01/13 12:00:58;;;;;;;;;0.00;0.00;;;;;21.38;46.09;101435.56;5014117;28;47055;-72
2023/01/13 12:03:49;;;;;;;;;0.00;0.00;;;;;21.38;45.79;101433.75;5014077;28;45353;-72
2023/01/13 12:06:24;;;;;;;;;1.00;0.00;;;;;21.38;46.29;101452.25;5013927;28;45442;-72
2023/01/13 12:09:11;;;;;;;;;0.33;0.33;;;;;21.39;46.25;101443.31;5014414;28;45314;-72
2023/01/13 12:14:49;;;;;;;;;0.00;0.00;;;;;21.33;46.01;101435.19;5013130;28;45393;-73
2023/01/13 12:17:30;;;;;;;;;2.00;0.67;;;;;21.40;45.91;101444.16;5010790;28;45577;-72
2023/01/13 12:19:56;;;;;;;;;2.00;1.00;;;;;21.42;45.85;101444.81;5045650;28;45417;-72
2023/01/13 12:22:29;;;;;;;;;1.00;0.00;;;;;21.42;46.09;101466.00;5062599;28;46426;-72
2023/01/13 12:25:13;;;;;;;;;0.67;0.67;;;;;21.42;45.98;101459.91;5070101;28;45319;-71